LATI/TIA METAR and TAF weather

Enter ICAO airport designator
Station Type Date Time Source
LATI METAR 2023/02/04 02:50 UTC NOAA

LATI 040250Z 17005KT 9999 BKN055 05/M01 Q1019 NOSIG


Station Type Date Time Source
LATI Decoded METAR 2023/02/04 02:50 UTC NOAA

Tirana, Albania (LATI) 41-20N 019-47E 90M
Feb 03, 2023 - 09:50 PM EST / 2023.02.04 0250 UTC
Wind: from the S (170 degrees) at 6 MPH (5 KT):0
Visibility: greater than 7 mile(s):0
Sky conditions: mostly cloudy
Temperature: 41 F (5 C)
Dew Point: 30 F (-1 C)
Relative Humidity: 65%
Pressure (altimeter): 30.09 in. Hg (1019 hPa)
ob: LATI 040250Z 17005KT 9999 BKN055 05/M01 Q1019 NOSIG
cycle: 3

Station Type Date Time Source
LATI TAF 2023/02/03 18:16 UTC NOAA

TAF LATI 031700Z 0318/0418 15006KT CAVOK TX08/0412Z TN03/0320Z
TEMPO 0402/0417 RA SCT020 BKN050
BECMG 0412/0414 35013G25KT

Example: see airport list